Sunset Beach, North Carolina
Current Conditions -  °F | °C
As of 2:53 PM on Monday 26 Jan 2015 (Local Time) from KCRE Reporting Station
Light Rain Light Rain  
Wind Chill: 57°   Ceiling: 7500
Heat Index: 57°   Visibility: 10mi
Dew Point: 42°   Wind: 9mph
Humidity: 57%   Direction: 260°W
Pressure: 29.56"   Gusts: NA
Location:  33.87°N, 78.51°W
Report Text: KCRE 261953Z 26008KT 10SM -RA BKN075 OVC090 14/06 A2956 RMK AO1 RAB48 SLP012 P0000 T01390056
Loading
Personal Weather Stations






























Interactive Weather Map New forecast layout! Learn more

10-Day Weather Forecast

Advertisements
Track Severe Weather on mobile